Accueil
METAR-TAF:

METAR-TAF

Aéroports :

Philip Municipal Airport

Philip, Dakota du Sud, États-Unis

latitude: 44-03-04N, longitude: 101-36-04W, altitude: 673 m

Observation

Le bulletin a été fait il y a 48 minutes, à 15:55 UTC
Vent 7 kt de ouest/sud-ouest
Température 4°C
Humidité 81%
Pression 1025 hPa
Visibilité: 16.1 km
Ciel clair

METAR: KPHP 141555Z AUTO 25007KT 10SM CLR 04/01 A3026 RMK AO2 SLP266 T00390011

Heure: 09:43 (16:43 UTC)


TAF: absent

Observations et prévisions météorologiques de plus de 4000 aéroports (messages METAR et TAF).

Les stations disponibles sont représentées par des disques jaunes et rouges sur la carte.

Passer la souris dessus pour voir le nom de la station.

Cliquer dessus pour voir les observations et prévisions météorologiques.

Pour changer de carte: cliquez sur les boutons verts avec une croix noire pour zoomer, sur le bouton vert avec un tiret pour effectuer un zoom arrière, ou sur les flèches vertes pour les cartes adjacentes.


METAR-TAF: